Terminal Aerodrome Forecast
Issued by NWS

Home | Current Version | Previous Version | Text Only | Print | Product List | Glossary On
Versions: 1 2 3 4 5 6 7 8 9 10 11 12 13 14 15 16 17 18 19 20
014
FTUS42 KFFC 200529
TAFPDK
TAF
KPDK 200529Z 2006/2106 00000KT P6SM SCT250
     FM200900 00000KT 6SM BR SCT250
     FM201400 08004KT P6SM FEW035 BKN250
     FM201800 13004KT P6SM FEW050 BKN250
     FM210000 00000KT P6SM BKN250=

USA.gov is the U.S. government's official web portal to all federal, state and local government web resources and services.